DW4722 Weather Reports


Display with metric or nautical units.
time (UTC)temp
F
wind
direction
speed
MPH
gust
MPH
rain 1hr
in
rain 24hr
in
rain mn
in
humidity
%
barometer
mb
20260506153050 50 30 1.0 0.0 0.00 0.00 0.37 93 1005.7
20260506151547 50 30 1.0 0.0 0.00 0.00 0.33 93 1006.0
20260506150047 50 30 1.0 0.0 0.00 0.00 0.30 93 1006.1
20260506144559 50 27 1.0 0.0 0.00 0.00 0.27 92 1006.2
20260506143044 51 24 1.0 0.0 0.00 0.00 0.24 92 1006.8
20260506141539 52 23 2.0 0.0 0.00 0.00 0.21 92 1006.7
20260506140035 53 14 1.0 0.0 0.00 0.00 0.18 93 1006.5
20260506134533 53 25 0.0 0.0 0.00 0.00 0.16 93 1006.4
20260506133033 53 22 0.0 0.0 0.00 0.00 0.14 93 1006.4
20260506131534 53 24 1.0 0.0 0.00 0.00 0.12 92 1006.2
20260506130030 53 48 1.0 0.0 0.00 0.00 0.09 92 1006.3
20260506124530 54 39 1.0 0.0 0.00 0.00 0.06 92 1006.3
20260506123030 54 42 2.0 0.0 0.00 0.00 0.04 92 1006.8
20260506121525 55 17 1.0 0.0 0.00 0.00 0.02 93 1007.0
20260506120033 56 27 1.0 0.0 0.00 0.00 0.01 93 1006.5
20260506114518 56 150 1.0 0.0 0.00 0.00 0.01 93 1006.0
20260506113028 56 159 0.0 0.0 0.00 0.00 0.01 93 1006.4
20260506111516 56 158 1.0 0.0 0.00 0.00 0.01 93 1006.6
20260506110014 56 187 0.0 0.0 0.00 0.00 0.01 93 1006.2
20260506104512 56 194 0.0 0.0 0.00 0.00 0.01 92 1006.4
20260506103013 55 194 0.0 0.0 0.00 0.00 0.01 92 1006.2
20260506101510 56 194 0.0 0.0 0.00 0.00 0.01 92 1006.1
20260506100010 55 194 0.0 0.0 0.00 0.00 0.01 92 1006.0
20260506094509 55 194 0.0 0.0 0.00 0.00 0.01 92 1005.9
20260506093007 56 194 0.0 0.0 0.00 0.00 0.01 92 1005.8
20260506091505 56 194 0.0 0.0 0.00 0.00 0.01 92 1005.9
20260506090004 56 194 0.0 0.0 0.00 0.00 0.01 92 1006.0
20260506084616 56 194 0.0 0.0 0.00 0.00 0.01 92 1006.1
20260506083057 56 194 0.0 0.0 0.00 0.00 0.01 91 1006.3
20260506081606 56 194 0.0 0.0 0.00 0.00 0.01 91 1006.6
20260506073059 57 194 0.0 0.0 0.00 0.00 0.01 91 1006.9
20260506071554 57 194 0.0 0.0 0.00 0.00 0.01 91 1006.7
20260506061555 58 194 0.0 0.0 0.00 0.00 0.01 90 1006.8
20260506044544 60 194 0.0 0.0 0.00 0.00 0.00 86 1006.9
20260506043039 61 194 0.0 0.0 0.00 0.00 0.00 85 1007.2
20260506041529 61 194 0.0 0.0 0.00 0.00 0.00 84 1006.9
20260506040023 60 194 0.0 0.0 0.00 0.00 0.00 85 1007.0
20260506034526 60 194 1.0 0.0 0.00 0.00 0.03 85 1007.0
20260506033021 60 194 0.0 0.0 0.00 0.00 0.03 85 1006.8
20260506031519 60 194 0.0 0.0 0.00 0.00 0.03 84 1006.5
20260506030021 60 194 0.0 0.0 0.00 0.00 0.03 84 1006.5
20260506024533 60 194 0.0 0.0 0.00 0.00 0.03 83 1006.4
20260506023016 61 194 0.0 0.0 0.00 0.00 0.03 82 1006.4
20260506021514 61 194 0.0 0.0 0.00 0.00 0.03 81 1006.3
20260506020012 62 194 0.0 0.0 0.00 0.00 0.03 80 1006.1
20260506014509 62 194 0.0 0.0 0.00 0.00 0.03 79 1006.0
20260506013007 62 194 0.0 0.0 0.00 0.00 0.03 79 1005.9
20260506011507 62 194 0.0 0.0 0.00 0.00 0.03 79 1005.8
20260506010007 62 194 0.0 0.0 0.00 0.00 0.03 77 1005.5
20260506004507 63 194 0.0 0.0 0.00 0.00 0.03 75 1005.1
20260506003005 64 194 0.0 0.0 0.00 0.00 0.03 73 1005.0
20260506001504 64 194 0.0 0.0 0.00 0.00 0.03 71 1004.7
20260506000007 65 194 0.0 0.0 0.00 0.00 0.03 71 1004.8
20260505234504 66 194 0.0 0.0 0.00 0.00 0.03 70 1004.8
20260505233002 66 191 2.0 0.0 0.00 0.00 0.03 70 1004.5
20260505231608 66 194 1.0 0.0 0.00 0.00 0.03 68 1004.4
20260505230059 67 182 1.0 0.0 0.00 0.00 0.03 67 1004.1
20260505224558 67 209 3.0 0.0 0.00 0.00 0.03 66 1004.5
20260505223105 67 217 4.0 0.0 0.00 0.00 0.03 65 1004.5
20260505221600 67 230 5.0 0.0 0.00 0.00 0.03 66 1004.5
20260505220056 68 196 1.0 0.0 0.00 0.00 0.03 66 1004.2
20260505214615 68 298 3.0 0.0 0.00 0.00 0.03 63 1003.7
20260505213102 69 288 4.0 0.0 0.00 0.00 0.03 63 1004.2
20260505211603 70 311 5.0 0.0 0.00 0.00 0.03 63 1004.5
20260505210054 71 268 1.0 0.0 0.00 0.00 0.03 66 1003.3
20260505204551 71 242 1.0 0.0 0.00 0.00 0.03 64 1002.6
20260505203050 69 248 1.0 0.0 0.00 0.00 0.03 67 1002.5
20260505201554 67 35 1.0 0.0 0.00 0.00 0.03 76 1002.1
20260505200057 68 345 9.0 0.0 0.00 0.00 0.03 69 1002.9
20260505194549 71 304 7.0 0.0 0.00 0.00 0.03 61 1002.8
20260505193047 77 300 6.0 0.0 0.00 0.00 0.00 47 1002.2
20260505191547 78 213 10.0 0.0 0.00 0.00 0.00 45 1001.1
20260505190048 78 195 9.0 0.0 0.00 0.00 0.00 45 1000.8
20260505184545 79 177 11.0 0.0 0.00 0.00 0.00 45 1000.8
20260505183053 79 192 12.0 0.0 0.00 0.00 0.00 44 1001.1
20260505181539 80 219 9.0 0.0 0.00 0.00 0.00 45 1001.1
20260505180041 79 219 10.0 0.0 0.00 0.00 0.00 44 1001.6
20260505174536 80 134 11.0 0.0 0.00 0.00 0.00 44 1001.9
20260505173030 79 232 12.0 0.0 0.00 0.00 0.00 45 1002.2
20260505171529 79 223 9.0 0.0 0.00 0.00 0.00 44 1002.2
20260505170029 80 228 11.0 0.0 0.00 0.00 0.00 43 1002.3
20260505164525 79 222 10.0 0.0 0.00 0.00 0.00 45 1002.7
20260505163021 78 188 9.0 0.0 0.00 0.00 0.00 47 1002.9
20260505161519 77 190 9.0 0.0 0.00 0.00 0.00 48 1003.4